Time;durP1;ratioP1;P1;durP2;ratioP2;P2;SDS_P1;SDS_P2;PMS_P1;PMS_P2;Temp;Humidity;BMP_temperature;BMP_pressure;BME280_temperature;BME280_humidity;BME280_pressure;Samples;Min_cycle;Max_cycle;Signal;HPM_P1;HPM_P2
2023/03/01 00:00:08;;;;;;;7.33;6.20;;;;;;;-143.84;94.95;43967.69;5072482;28;20506;-72
2023/03/01 00:02:35;;;;;;;7.60;6.33;;;;;;;-143.84;95.48;43960.06;5092490;28;20519;-72
2023/03/01 00:05:02;;;;;;;6.63;6.00;;;;;;;-143.84;95.04;43973.38;5092480;28;20440;-72
2023/03/01 00:07:31;;;;;;;8.30;6.67;;;;;;;-143.84;94.92;43979.09;5092546;28;20466;-73
2023/03/01 00:09:58;;;;;;;7.60;6.33;;;;;;;-143.84;94.58;43961.97;5092600;28;20452;-73
2023/03/01 00:12:25;;;;;;;8.90;6.93;;;;;;;-143.84;94.76;43961.97;5092892;28;20520;-73
2023/03/01 00:14:52;;;;;;;8.80;7.60;;;;;;;-143.84;94.90;43973.38;5092600;28;20466;-73
2023/03/01 00:17:20;;;;;;;8.83;7.10;;;;;;;-143.84;94.90;43975.28;5092588;28;20904;-73
2023/03/01 00:19:47;;;;;;;12.23;7.57;;;;;;;-143.84;94.79;43952.44;5091861;28;20444;-73
2023/03/01 00:22:14;;;;;;;8.17;7.33;;;;;;;-143.84;93.95;43933.41;5092186;28;20463;-73
2023/03/01 00:24:42;;;;;;;12.30;7.30;;;;;;;-143.84;94.39;43954.34;5092418;28;20945;-73
2023/03/01 00:27:09;;;;;;;8.37;7.33;;;;;;;-143.84;94.36;43939.13;5092551;28;20463;-73
2023/03/01 00:29:36;;;;;;;8.33;7.37;;;;;;;-143.84;94.79;43956.25;5092445;28;20509;-73
2023/03/01 00:32:04;;;;;;;11.80;7.77;;;;;;;-143.84;93.88;43942.94;5092292;28;20448;-73
2023/03/01 00:34:31;;;;;;;10.77;7.40;;;;;;;-143.84;94.13;43937.22;5092200;28;20794;-73
2023/03/01 00:37:04;;;;;;;11.50;7.23;;;;;;;-143.84;94.42;43927.69;5091164;28;21055;-73
2023/03/01 00:39:33;;;;;;;7.70;6.90;;;;;;;-143.84;93.86;43948.63;5091974;28;20438;-73
2023/03/01 00:42:01;;;;;;;10.83;5.57;;;;;;;-143.84;93.88;43922.00;5091920;28;20428;-73
2023/03/01 00:44:28;;;;;;;7.43;5.93;;;;;;;-143.84;93.94;43922.00;5091682;28;20448;-73
2023/03/01 00:46:55;;;;;;;9.53;6.90;;;;;;;-143.84;93.54;43920.09;5091891;28;20477;-73
2023/03/01 00:49:24;;;;;;;7.13;5.83;;;;;;;-143.84;93.75;43929.59;5091531;28;21208;-73
2023/03/01 00:51:51;;;;;;;9.70;5.97;;;;;;;-143.84;93.39;43923.91;5091833;28;20486;-73
2023/03/01 00:54:18;;;;;;;8.37;5.57;;;;;;;-143.84;93.58;43931.50;5091950;28;20443;-73
2023/03/01 00:56:45;;;;;;;7.60;6.40;;;;;;;-143.84;93.57;43920.09;5091783;28;20483;-73
2023/03/01 00:59:13;;;;;;;8.63;5.80;;;;;;;-143.84;93.65;43914.38;5092036;28;21121;-73
2023/03/01 01:01:41;;;;;;;7.27;5.20;;;;;;;-143.84;93.31;43904.84;5091826;28;20443;-73
2023/03/01 01:04:10;;;;;;;6.77;5.47;;;;;;;-143.84;93.87;43908.66;5091503;28;20802;-73
2023/03/01 01:06:42;;;;;;;8.07;5.57;;;;;;;-143.84;93.80;43935.31;5091406;28;20437;-73
2023/03/01 01:09:16;;;;;;;9.47;6.10;;;;;;;-143.84;93.61;43927.69;5091465;28;20444;-73
2023/03/01 01:11:45;;;;;;;9.17;6.67;;;;;;;-143.84;93.89;43918.19;5091377;28;20526;-73
2023/03/01 01:14:14;;;;;;;7.63;6.00;;;;;;;-143.84;93.41;43910.56;5091684;28;21095;-73
2023/03/01 01:16:41;;;;;;;9.07;6.53;;;;;;;-143.84;93.94;43916.28;5091753;28;20513;-73
2023/03/01 01:19:09;;;;;;;12.80;6.90;;;;;;;-143.84;93.75;43941.03;5091522;28;20470;-73
2023/03/01 01:21:37;;;;;;;12.20;7.10;;;;;;;-143.84;94.11;43939.13;5091621;28;20428;-73
2023/03/01 01:24:05;;;;;;;9.70;7.47;;;;;;;-143.84;94.25;43922.00;5092068;28;20782;-73
2023/03/01 01:26:34;;;;;;;9.73;7.70;;;;;;;-143.84;94.54;43952.44;5091663;28;20467;-73
2023/03/01 01:29:02;;;;;;;11.87;7.47;;;;;;;-143.84;94.48;43950.53;5090415;28;20509;-73
2023/03/01 01:31:31;;;;;;;13.90;8.00;;;;;;;-143.84;94.79;43958.16;5090568;28;20439;-73
2023/03/01 01:34:01;;;;;;;11.53;7.53;;;;;;;-143.84;94.96;43984.81;5090870;28;20481;-73
2023/03/01 01:36:28;;;;;;;10.17;8.13;;;;;;;-143.84;95.10;43979.09;5091019;28;20949;-73
2023/03/01 01:38:56;;;;;;;13.27;8.33;;;;;;;-143.84;95.48;43994.31;5090855;28;20443;-73
2023/03/01 01:41:24;;;;;;;16.40;8.73;;;;;;;-143.84;95.56;43986.72;5090856;28;20501;-73
2023/03/01 01:44:14;;;;;;;12.37;7.93;;;;;;;-143.84;95.99;43975.28;5090883;28;20559;-73
2023/03/01 01:46:47;;;;;;;15.50;8.73;;;;;;;-143.84;95.90;43998.13;5090632;28;20447;-73
2023/03/01 01:49:23;;;;;;;10.47;8.60;;;;;;;-143.84;95.73;44001.94;5090504;28;21183;-77
2023/03/01 01:51:56;;;;;;;11.10;9.23;;;;;;;-143.84;95.93;43998.13;5090407;28;20450;-77
2023/03/01 01:54:28;;;;;;;14.27;9.90;;;;;;;-143.84;96.20;44007.66;5091011;28;20444;-77
2023/03/01 01:57:01;;;;;;;17.60;11.43;;;;;;;-143.84;95.90;44013.38;5091329;28;20483;-77
2023/03/01 01:59:31;;;;;;;13.03;9.70;;;;;;;-143.84;95.66;44000.03;5091650;28;20444;-77
2023/03/01 02:02:02;;;;;;;13.60;10.20;;;;;;;-143.84;96.04;43994.31;5091299;28;20443;-77
2023/03/01 02:04:30;;;;;;;15.67;10.77;;;;;;;-143.84;96.08;43998.13;5091667;28;20988;-77
2023/03/01 02:07:02;;;;;;;17.07;11.03;;;;;;;-143.84;96.48;44013.38;5091355;28;20432;-77
2023/03/01 02:09:32;;;;;;;13.40;10.70;;;;;;;-143.84;96.57;44020.97;5091658;28;20887;-77
2023/03/01 02:12:00;;;;;;;15.20;10.90;;;;;;;-143.84;97.00;44024.78;5091570;28;20428;-77
2023/03/01 02:14:27;;;;;;;15.80;10.50;;;;;;;-143.84;96.81;44034.31;5090252;28;20492;-77
2023/03/01 02:16:54;;;;;;;13.60;12.07;;;;;;;-143.84;96.70;44034.31;5090363;28;20849;-77
2023/03/01 02:19:39;;;;;;;17.53;13.00;;;;;;;-143.84;96.94;44043.81;5090658;28;20509;-77
2023/03/01 02:22:19;;;;;;;17.30;11.60;;;;;;;-143.84;96.36;44024.78;5090816;28;20470;-77
2023/03/01 02:24:58;;;;;;;17.80;13.37;;;;;;;-143.84;96.00;44034.31;5091074;28;20481;-77
2023/03/01 02:27:36;;;;;;;32.30;14.20;;;;;;;-143.84;96.14;44013.38;5090857;28;20950;-77
2023/03/01 02:30:06;;;;;;;17.27;12.17;;;;;;;-143.84;95.92;44000.03;5090955;28;20454;-77
2023/03/01 02:32:32;;;;;;;18.37;12.20;;;;;;;-143.84;95.36;44005.75;5091090;28;20444;-77
2023/03/01 02:35:00;;;;;;;17.50;12.53;;;;;;;-143.84;95.62;43988.63;5091040;28;20440;-77
2023/03/01 02:37:28;;;;;;;18.97;13.43;;;;;;;-143.84;95.62;43992.41;5089406;28;20523;-77
2023/03/01 02:40:00;;;;;;;16.60;12.53;;;;;;;-143.84;95.30;43996.22;5090167;28;20505;-77
2023/03/01 02:42:32;;;;;;;21.83;13.97;;;;;;;-143.84;94.59;43979.09;5090377;28;20451;-77
2023/03/01 02:44:59;;;;;;;22.83;14.70;;;;;;;-143.84;94.96;43967.69;5090446;28;20428;-76
2023/03/01 02:47:28;;;;;;;14.27;12.50;;;;;;;-143.84;94.96;43979.09;5090048;28;20509;-77
2023/03/01 02:49:55;;;;;;;22.60;13.80;;;;;;;-143.84;94.92;43981.00;5072136;28;21340;-76
2023/03/01 02:52:35;;;;;;;21.07;13.90;;;;;;;-143.84;94.64;43961.97;5090182;28;20986;-77
2023/03/01 02:55:05;;;;;;;21.80;13.00;;;;;;;-143.84;94.54;43935.31;5088538;28;20542;-77
2023/03/01 02:57:35;;;;;;;23.40;15.07;;;;;;;-143.84;94.44;43946.75;5088419;28;20491;-77
2023/03/01 03:00:07;;;;;;;20.27;13.20;;;;;;;-143.84;94.20;43958.16;5088832;28;20516;-76
2023/03/01 03:02:37;;;;;;;22.80;13.13;;;;;;;-143.84;94.31;43960.06;5088950;28;20447;-77
2023/03/01 03:05:10;;;;;;;23.20;15.03;;;;;;;-143.84;94.02;43939.13;5088804;28;20443;-76
2023/03/01 03:07:40;;;;;;;21.87;13.97;;;;;;;-143.84;94.10;43944.84;5090116;28;20452;-77
2023/03/01 03:10:11;;;;;;;20.70;13.97;;;;;;;-143.84;94.22;43937.22;5090342;28;20428;-77
2023/03/01 03:12:38;;;;;;;23.87;14.67;;;;;;;-143.84;93.88;43944.84;5090035;28;20444;-76
2023/03/01 03:15:08;;;;;;;21.33;15.70;;;;;;;-143.84;93.54;43925.78;5090058;28;20436;-76
2023/03/01 03:17:37;;;;;;;19.63;13.83;;;;;;;-143.84;93.34;43918.19;5089680;28;20536;-77
2023/03/01 03:20:10;;;;;;;17.43;13.43;;;;;;;-143.84;93.11;43925.78;5089766;28;20495;-77
2023/03/01 03:22:38;;;;;;;22.17;15.17;;;;;;;-143.84;93.06;43920.09;5089318;28;20489;-77
2023/03/01 03:25:05;;;;;;;22.80;15.30;;;;;;;-143.84;93.16;43923.91;5089164;28;20505;-77
2023/03/01 03:27:33;;;;;;;18.97;14.03;;;;;;;-143.84;92.90;43910.56;5089730;28;20530;-76
2023/03/01 03:30:00;;;;;;;31.00;18.00;;;;;;;-143.84;92.97;43904.84;5089586;28;20527;-76
2023/03/01 03:32:27;;;;;;;25.60;16.07;;;;;;;-143.84;92.93;43906.75;5089857;28;21171;-76
2023/03/01 03:34:55;;;;;;;26.20;15.80;;;;;;;-143.84;93.05;43895.34;5089239;28;20451;-76
2023/03/01 03:40:15;;;;;;;26.13;17.00;;;;;;;-143.84;93.42;43910.56;5089754;28;20955;-76
2023/03/01 03:42:42;;;;;;;26.20;17.53;;;;;;;-143.84;92.89;43906.75;5089502;28;20518;-76
2023/03/01 03:45:09;;;;;;;26.60;16.40;;;;;;;-143.84;93.42;43914.38;5073093;28;20865;-76
2023/03/01 03:47:55;;;;;;;23.57;16.20;;;;;;;-143.84;92.88;43904.84;5068219;28;21205;-76
2023/03/01 03:50:23;;;;;;;30.10;17.23;;;;;;;-143.84;93.38;43902.97;5068337;28;20441;-76
2023/03/01 03:52:50;;;;;;;23.47;15.93;;;;;;;-143.84;93.68;43927.69;5069216;28;20816;-76
2023/03/01 03:55:19;;;;;;;33.03;15.47;;;;;;;-143.84;93.49;43922.00;5068718;28;20850;-76
2023/03/01 03:58:06;;;;;;;29.17;16.30;;;;;;;-143.84;93.91;43922.00;5069111;28;20472;-76
2023/03/01 04:03:21;;;;;;;25.23;17.07;;;;;;;-143.84;93.77;43925.78;5069561;28;20412;-76
2023/03/01 04:05:52;;;;;;;30.73;18.13;;;;;;;-143.84;94.18;43952.44;5069571;28;20498;-76
2023/03/01 04:08:21;;;;;;;27.60;16.67;;;;;;;-143.84;93.96;43939.13;5069031;28;20452;-77
2023/03/01 04:10:50;;;;;;;26.77;16.20;;;;;;;-143.84;93.98;43942.94;5068406;28;20997;-77
2023/03/01 04:13:19;;;;;;;24.90;17.27;;;;;;;-143.84;94.11;43954.34;5071245;28;20433;-74
2023/03/01 04:15:47;;;;;;;25.73;16.40;;;;;;;-143.84;94.33;43941.03;5072846;28;20480;-76
2023/03/01 04:18:15;;;;;;;27.73;16.07;;;;;;;-143.84;94.48;43933.41;5072294;28;20953;-75
2023/03/01 04:20:44;;;;;;;29.17;17.30;;;;;;;-143.84;94.79;43971.47;5054000;28;20452;-75
2023/03/01 04:23:15;;;;;;;21.47;15.30;;;;;;;-143.84;94.67;43977.19;5072304;28;20853;-75
2023/03/01 04:25:46;;;;;;;25.57;16.17;;;;;;;-143.84;94.44;43958.16;5071866;28;20985;-75
2023/03/01 04:28:13;;;;;;;27.47;16.67;;;;;;;-143.84;93.78;43958.16;5071917;28;20455;-73
2023/03/01 04:30:41;;;;;;;22.20;16.83;;;;;;;-143.84;93.20;43948.63;5071745;28;20441;-76
2023/03/01 04:33:09;;;;;;;24.97;16.67;;;;;;;-143.84;93.41;43942.94;5071303;28;20436;-76
2023/03/01 04:35:37;;;;;;;28.93;16.07;;;;;;;-143.84;93.57;43931.50;5071482;28;20459;-76
2023/03/01 04:38:05;;;;;;;31.43;15.40;;;;;;;-143.84;92.62;43906.75;5071747;28;20993;-76
2023/03/01 04:40:33;;;;;;;26.37;15.50;;;;;;;-143.84;93.03;43906.75;5072301;28;20433;-75
2023/03/01 04:43:01;;;;;;;26.70;16.23;;;;;;;-143.84;92.48;43893.44;5086388;28;20444;-76
2023/03/01 04:45:28;;;;;;;24.93;15.50;;;;;;;-143.84;91.97;43882.00;5092185;28;20448;-75
2023/03/01 04:47:58;;;;;;;23.67;15.67;;;;;;;-143.84;91.97;43880.13;5091955;28;20475;-77
2023/03/01 04:50:25;;;;;;;31.77;16.37;;;;;;;-143.84;91.72;43901.06;5092090;28;20444;-77
2023/03/01 04:52:53;;;;;;;25.10;16.73;;;;;;;-143.84;91.95;43874.41;5092186;28;21253;-75
2023/03/01 04:55:20;;;;;;;27.27;15.97;;;;;;;-143.84;92.17;43893.44;5091416;28;21172;-75
2023/03/01 04:57:49;;;;;;;21.93;15.50;;;;;;;-143.84;91.87;43872.50;5092338;28;20973;-77
2023/03/01 05:00:22;;;;;;;25.70;13.60;;;;;;;-143.84;92.20;43878.22;5093960;28;20475;-77
2023/03/01 05:02:53;;;;;;;22.10;15.20;;;;;;;-143.84;92.12;43891.53;5093776;28;20431;-77
2023/03/01 05:05:25;;;;;;;23.07;16.00;;;;;;;-143.84;91.38;43895.34;5094056;28;20475;-77
2023/03/01 05:07:53;;;;;;;19.13;14.17;;;;;;;-143.84;91.89;43895.34;5093218;28;20444;-77
2023/03/01 05:10:21;;;;;;;22.00;15.20;;;;;;;-143.84;91.48;43882.00;5093238;28;20809;-77
2023/03/01 05:12:49;;;;;;;22.50;16.07;;;;;;;-143.84;91.82;43906.75;5092873;28;20833;-77
2023/03/01 05:15:21;;;;;;;19.37;14.87;;;;;;;-143.84;91.85;43895.34;5092424;28;20505;-74
2023/03/01 05:17:49;;;;;;;24.87;16.10;;;;;;;-143.84;91.72;43885.81;5091626;28;20484;-74
2023/03/01 05:20:16;;;;;;;25.80;15.10;;;;;;;-143.84;91.57;43882.00;5091330;28;20443;-74
2023/03/01 05:22:43;;;;;;;25.10;16.07;;;;;;;-143.84;91.98;43872.50;5091479;28;20447;-74
2023/03/01 05:25:13;;;;;;;21.97;15.63;;;;;;;-143.84;91.78;43893.44;5092090;28;20436;-74
2023/03/01 05:27:40;;;;;;;29.57;17.60;;;;;;;-143.84;92.42;43887.72;5092013;28;20517;-74
2023/03/01 05:30:14;;;;;;;28.30;16.40;;;;;;;-143.84;92.23;43904.84;5092025;28;20431;-74
2023/03/01 05:32:44;;;;;;;23.90;16.13;;;;;;;-143.84;92.23;43887.72;5092293;28;20515;-74
2023/03/01 05:35:13;;;;;;;29.03;15.40;;;;;;;-143.84;92.18;43883.91;5091779;28;20526;-74
2023/03/01 05:37:45;;;;;;;22.93;15.87;;;;;;;-143.84;92.07;43872.50;5092629;28;20440;-74
2023/03/01 05:40:15;;;;;;;27.90;16.17;;;;;;;-143.84;91.75;43889.63;5091814;28;20436;-74
2023/03/01 05:42:44;;;;;;;25.60;15.67;;;;;;;-143.84;92.00;43883.91;5091063;28;20458;-72
2023/03/01 05:45:13;;;;;;;26.07;17.90;;;;;;;-143.84;92.27;43874.41;5091036;28;20436;-75
2023/03/01 05:47:43;;;;;;;24.67;16.80;;;;;;;-143.84;92.60;43885.81;5091252;28;20472;-75
2023/03/01 05:50:13;;;;;;;21.67;14.87;;;;;;;-143.84;92.05;43885.81;5091479;28;20448;-75
2023/03/01 05:52:40;;;;;;;26.23;16.70;;;;;;;-143.84;92.03;43889.63;5091772;28;20435;-74
2023/03/01 05:55:08;;;;;;;20.97;15.50;;;;;;;-143.84;92.28;43889.63;5091455;28;20428;-74
2023/03/01 05:57:35;;;;;;;21.90;16.23;;;;;;;-143.84;92.25;43887.72;5091515;28;20515;-74
2023/03/01 06:00:03;;;;;;;24.80;16.93;;;;;;;-143.84;92.66;43878.22;5090601;28;20444;-73
2023/03/01 06:02:32;;;;;;;23.90;15.60;;;;;;;-143.84;92.47;43904.84;5090406;28;20431;-74
2023/03/01 06:04:59;;;;;;;22.80;16.93;;;;;;;-143.84;92.60;43904.84;5088871;28;20476;-74
2023/03/01 06:07:26;;;;;;;25.50;15.67;;;;;;;-143.84;92.30;43895.34;5090058;28;20428;-73
2023/03/01 06:09:53;;;;;;;24.27;16.00;;;;;;;-143.84;92.33;43882.00;5090937;28;20448;-73
2023/03/01 06:12:20;;;;;;;23.80;17.30;;;;;;;-143.84;92.38;43901.06;5090614;28;20440;-74
2023/03/01 06:14:48;;;;;;;25.70;15.93;;;;;;;-143.84;92.55;43893.44;5091120;28;20436;-74
2023/03/01 06:17:15;;;;;;;24.30;16.47;;;;;;;-143.84;92.21;43914.38;5091679;28;20462;-74
2023/03/01 06:19:44;;;;;;;22.87;15.67;;;;;;;-143.84;92.62;43887.72;5091744;28;20552;-73
2023/03/01 06:22:11;;;;;;;21.87;15.30;;;;;;;-143.84;92.40;43887.72;5091669;28;20448;-73
2023/03/01 06:24:38;;;;;;;31.10;17.37;;;;;;;-143.84;92.86;43895.34;5091672;28;20439;-74
2023/03/01 06:27:05;;;;;;;25.73;17.00;;;;;;;-143.84;92.56;43908.66;5090768;28;20462;-76
2023/03/01 06:29:32;;;;;;;25.67;16.10;;;;;;;-143.84;92.29;43861.06;5090899;28;20432;-74
2023/03/01 06:31:59;;;;;;;22.53;16.63;;;;;;;-143.84;92.18;43895.34;5091791;28;20447;-74
2023/03/01 06:34:26;;;;;;;32.00;17.43;;;;;;;-143.84;92.57;43868.69;5091875;28;20428;-74
2023/03/01 06:36:55;;;;;;;28.70;17.07;;;;;;;-143.84;92.17;43893.44;5091712;28;20432;-74
2023/03/01 06:39:22;;;;;;;25.67;15.30;;;;;;;-143.84;92.09;43874.41;5091840;28;20498;-74
2023/03/01 06:41:49;;;;;;;22.87;15.90;;;;;;;-143.84;92.46;43870.59;5091770;28;20986;-74
2023/03/01 06:44:16;;;;;;;21.53;14.93;;;;;;;-143.84;92.20;43895.34;5091986;28;20514;-74
2023/03/01 06:46:43;;;;;;;25.67;17.07;;;;;;;-143.84;92.16;43870.59;5091765;28;21089;-73
2023/03/01 06:49:10;;;;;;;22.50;15.67;;;;;;;-143.84;91.75;43870.59;5091527;28;20479;-78
2023/03/01 06:51:38;;;;;;;29.83;17.57;;;;;;;-143.84;91.43;43859.19;5089777;28;20446;-77
2023/03/01 06:54:06;;;;;;;22.47;16.13;;;;;;;-143.84;91.53;43864.88;5090235;28;20502;-77
2023/03/01 06:56:33;;;;;;;26.07;15.67;;;;;;;-143.84;91.32;43847.75;5090649;28;20447;-77
2023/03/01 06:59:02;;;;;;;23.07;17.13;;;;;;;-143.84;91.47;43876.31;5091351;28;20856;-78
2023/03/01 07:01:30;;;;;;;24.33;17.20;;;;;;;-143.84;91.05;43866.78;5091023;28;20475;-78
2023/03/01 07:03:57;;;;;;;22.10;15.40;;;;;;;-143.84;91.09;43855.38;5090815;28;20447;-77
2023/03/01 07:06:25;;;;;;;35.47;18.67;;;;;;;-143.84;91.54;43868.69;5090606;28;20436;-77
2023/03/01 07:08:52;;;;;;;29.90;16.53;;;;;;;-143.84;91.79;43853.47;5090748;28;21005;-77
2023/03/01 07:11:20;;;;;;;33.53;20.40;;;;;;;-143.84;91.31;43859.19;5089622;28;20949;-77
2023/03/01 07:13:47;;;;;;;28.10;17.17;;;;;;;-143.84;91.63;43876.31;5088087;28;20432;-78
2023/03/01 07:16:15;;;;;;;30.00;19.97;;;;;;;-143.84;91.18;43862.97;5089246;28;20517;-78
2023/03/01 07:18:42;;;;;;;28.10;17.47;;;;;;;-143.84;91.32;43874.41;5090411;28;20476;-78
2023/03/01 07:21:13;;;;;;;26.80;18.73;;;;;;;-143.84;91.81;43897.25;5090133;28;20440;-77
2023/03/01 07:23:40;;;;;;;29.33;18.70;;;;;;;-143.84;91.46;43893.44;5089857;28;20444;-77
2023/03/01 07:26:07;;;;;;;26.27;17.27;;;;;;;-143.84;91.60;43866.78;5090447;28;20953;-76
2023/03/01 07:28:38;;;;;;;26.53;16.57;;;;;;;-143.84;91.37;43862.97;5091087;28;20444;-77
2023/03/01 07:31:06;;;;;;;28.80;19.50;;;;;;;-143.84;91.50;43851.56;5090478;28;20452;-77
2023/03/01 07:33:33;;;;;;;26.37;18.37;;;;;;;-143.84;91.68;43876.31;5090503;28;20586;-77
2023/03/01 07:36:02;;;;;;;27.97;17.53;;;;;;;-143.84;91.92;43891.53;5090644;28;20432;-77
2023/03/01 07:38:30;;;;;;;25.60;17.53;;;;;;;-143.84;91.76;43870.59;5089572;28;20476;-78
2023/03/01 07:40:59;;;;;;;33.10;18.00;;;;;;;-143.84;91.40;43880.13;5090417;28;20520;-77
2023/03/01 07:43:27;;;;;;;23.73;17.63;;;;;;;-143.84;91.25;43866.78;5090277;28;20511;-77
2023/03/01 07:45:59;;;;;;;32.23;18.43;;;;;;;-143.84;91.10;43872.50;5090625;28;20690;-77
2023/03/01 07:48:26;;;;;;;24.43;17.93;;;;;;;-143.84;91.29;43847.75;5092836;28;20537;-77
2023/03/01 07:50:53;;;;;;;25.17;16.77;;;;;;;-143.84;91.75;43878.22;5094247;28;20432;-77
2023/03/01 07:53:20;;;;;;;31.43;18.83;;;;;;;-143.84;90.98;43855.38;5094333;28;20983;-77
2023/03/01 07:55:47;;;;;;;35.03;18.67;;;;;;;-143.84;90.86;43832.53;5094224;28;20436;-77
2023/03/01 07:58:14;;;;;;;32.33;18.93;;;;;;;-143.84;91.06;43830.63;5093890;28;20497;-77
2023/03/01 08:00:41;;;;;;;35.67;21.73;;;;;;;-143.84;91.36;43859.19;5087446;28;20502;-78
2023/03/01 08:03:10;;;;;;;35.60;20.60;;;;;;;-143.84;91.19;43857.28;5072958;28;20452;-78
2023/03/01 08:05:37;;;;;;;26.10;19.30;;;;;;;-143.84;90.70;43891.53;5073530;28;20455;-78
2023/03/01 08:08:06;;;;;;;27.20;17.50;;;;;;;-143.84;90.41;43819.19;5073695;28;20872;-78
2023/03/01 08:10:33;;;;;;;26.97;16.90;;;;;;;-143.84;89.73;43823.00;5073429;28;20437;-77
2023/03/01 08:13:00;;;;;;;25.83;16.60;;;;;;;-143.84;90.08;43857.28;5073544;28;20502;-77
2023/03/01 08:15:27;;;;;;;27.13;18.10;;;;;;;-143.84;90.38;43828.72;5073340;28;20444;-77
2023/03/01 08:17:55;;;;;;;25.87;17.00;;;;;;;-143.84;90.10;43821.09;5072914;28;20441;-77
2023/03/01 08:20:23;;;;;;;26.43;16.50;;;;;;;-143.84;90.55;43832.53;5073453;28;20561;-77
2023/03/01 08:22:50;;;;;;;25.20;16.57;;;;;;;-143.84;90.69;43832.53;5073433;28;20506;-77
2023/03/01 08:25:18;;;;;;;26.80;17.67;;;;;;;-143.84;90.19;43843.94;5073180;28;20441;-78
2023/03/01 08:27:45;;;;;;;23.30;17.00;;;;;;;-143.84;90.14;43809.69;5073147;28;20990;-78
2023/03/01 08:30:13;;;;;;;29.73;16.50;;;;;;;-143.84;89.24;43882.00;5073541;28;20946;-78
2023/03/01 08:32:40;;;;;;;27.03;18.87;;;;;;;-143.84;88.63;43897.25;5073017;28;20488;-78
2023/03/01 08:35:08;;;;;;;26.97;19.90;;;;;;;-143.84;88.10;44000.03;5072809;28;20440;-77
2023/03/01 08:37:37;;;;;;;23.50;16.70;;;;;;;-143.84;87.88;44057.16;5073148;28;20437;-77
2023/03/01 08:40:07;;;;;;;28.43;19.47;;;;;;;-143.84;87.56;43950.53;5071989;28;20480;-77
2023/03/01 08:42:34;;;;;;;32.47;21.60;;;;;;;-143.84;87.85;43979.09;5072832;28;20467;-78
2023/03/01 08:45:01;;;;;;;31.17;19.93;;;;;;;-143.84;86.79;44171.38;5072707;28;20448;-78
2023/03/01 08:47:28;;;;;;;26.80;18.77;;;;;;;-143.84;86.92;44167.56;5072689;28;20550;-77
2023/03/01 08:49:55;;;;;;;22.13;16.57;;;;;;;-143.84;85.63;44474.06;5072868;28;20522;-77
2023/03/01 08:52:24;;;;;;;23.97;17.50;;;;;;;-143.84;84.41;44839.63;5072922;28;21083;-78
2023/03/01 08:54:53;;;;;;;27.23;17.73;;;;;;;-143.84;84.15;44900.53;5072548;28;20490;-77
2023/03/01 08:57:20;;;;;;;30.17;17.00;;;;;;;-143.84;83.55;44995.75;5072548;28;21298;-77
2023/03/01 08:59:47;;;;;;;27.63;18.33;;;;;;;-143.84;82.41;45030.03;5072120;28;20484;-77
2023/03/01 09:02:20;;;;;;;23.83;17.70;;;;;;;-143.84;82.52;45026.22;5071809;28;20437;-77
2023/03/01 09:04:47;;;;;;;27.97;17.83;;;;;;;-143.84;82.28;45045.25;5071767;28;20452;-77
2023/03/01 09:07:14;;;;;;;26.00;18.50;;;;;;;-143.84;82.27;45064.31;5072477;28;20425;-77
2023/03/01 09:09:41;;;;;;;31.23;19.93;;;;;;;-143.84;82.14;45102.38;5072404;28;20443;-77
2023/03/01 09:12:10;;;;;;;30.47;19.97;;;;;;;-143.84;81.77;45071.91;5071968;28;20784;-77
2023/03/01 09:14:38;;;;;;;26.50;18.93;;;;;;;-143.84;81.53;45087.16;5072021;28;20437;-77
2023/03/01 09:17:05;;;;;;;30.77;19.37;;;;;;;-143.84;81.49;45102.38;5071848;28;20452;-77
2023/03/01 09:19:33;;;;;;;29.47;19.87;;;;;;;-143.84;82.57;45052.88;5071452;28;20476;-77
2023/03/01 09:22:00;;;;;;;29.43;18.87;;;;;;;-143.84;81.50;45104.28;5070937;28;20436;-76
2023/03/01 09:24:27;;;;;;;30.13;20.60;;;;;;;-143.84;81.58;45100.47;5071833;28;20810;-77
2023/03/01 09:26:55;;;;;;;28.93;18.90;;;;;;;-143.84;82.04;45064.31;5071847;28;20440;-77
2023/03/01 09:29:25;;;;;;;27.63;19.50;;;;;;;-143.84;82.09;45115.72;5054046;28;20545;-77
2023/03/01 09:31:54;;;;;;;35.53;19.67;;;;;;;-143.84;82.15;45050.97;5071552;28;20473;-77
2023/03/01 09:34:23;;;;;;;30.23;21.53;;;;;;;-143.84;81.82;45052.88;5071682;28;20448;-77
2023/03/01 09:36:51;;;;;;;31.30;20.10;;;;;;;-143.84;81.90;45077.63;5071667;28;20433;-77
2023/03/01 09:39:20;;;;;;;39.00;18.83;;;;;;;-143.84;82.88;45007.19;5071285;28;20563;-77
2023/03/01 09:41:51;;;;;;;28.17;16.57;;;;;;;-143.84;82.04;45083.34;5071514;28;20432;-77
2023/03/01 09:44:39;;;;;;;25.97;18.40;;;;;;;-143.84;80.87;45096.66;5070557;28;20446;-77
2023/03/01 09:47:10;;;;;;;27.20;17.37;;;;;;;-143.84;81.16;45102.38;5070725;28;20469;-77
2023/03/01 09:49:48;;;;;;;25.43;17.13;;;;;;;-143.84;80.10;45148.09;5071263;28;20448;-74
2023/03/01 09:52:24;;;;;;;24.97;16.77;;;;;;;-143.84;80.11;45148.09;5070867;28;20448;-77
2023/03/01 09:54:56;;;;;;;25.20;17.10;;;;;;;-143.84;80.10;45125.22;5072006;28;20441;-78
2023/03/01 09:57:30;;;;;;;22.23;15.63;;;;;;;-143.84;80.47;45129.03;5071394;28;20498;-78
2023/03/01 10:00:11;;;;;;;17.90;14.30;;;;;;;-143.84;80.31;45142.38;5071371;28;20468;-78
2023/03/01 10:02:44;;;;;;;28.87;13.70;;;;;;;-143.84;78.91;45170.94;5067176;28;20810;-77
2023/03/01 10:05:31;;;;;;;22.13;14.10;;;;;;;-143.84;78.40;45140.47;5068365;28;20449;-77
2023/03/01 10:08:07;;;;;;;16.30;12.17;;;;;;;-143.84;78.74;45142.38;5067987;28;20445;-77
2023/03/01 10:10:36;;;;;;;22.73;12.33;;;;;;;-143.84;78.76;45144.28;5069675;28;20880;-77
2023/03/01 10:13:11;;;;;;;24.53;11.70;;;;;;;-143.84;77.74;45193.78;5071509;28;20444;-77
2023/03/01 10:15:45;;;;;;;22.70;11.13;;;;;;;-143.84;78.91;45115.72;5070871;28;20967;-77
2023/03/01 10:18:16;;;;;;;15.73;9.80;;;;;;;-143.84;77.67;45169.03;5070837;28;20441;-78
2023/03/01 10:20:52;;;;;;;12.80;9.30;;;;;;;-143.84;77.63;45172.84;5070603;28;20480;-77
2023/03/01 10:23:19;;;;;;;14.00;10.13;;;;;;;-143.84;76.53;45184.25;5070107;28;20510;-77
2023/03/01 10:26:04;;;;;;;41.87;11.10;;;;;;;-143.84;76.54;45159.50;5070566;28;20437;-77
2023/03/01 10:28:39;;;;;;;17.93;11.40;;;;;;;-143.84;76.91;45163.31;5070363;28;20491;-76
2023/03/01 10:31:13;;;;;;;14.47;10.40;;;;;;;-143.84;76.28;45167.13;5071085;28;20448;-76
2023/03/01 10:33:41;;;;;;;25.57;12.57;;;;;;;-143.84;77.28;45182.38;5071003;28;20440;-75
2023/03/01 10:36:09;;;;;;;17.43;12.17;;;;;;;-143.84;77.01;45170.94;5071904;28;20433;-76
2023/03/01 10:38:52;;;;;;;18.47;12.17;;;;;;;-143.84;76.59;45167.13;5071218;28;20498;-76
2023/03/01 10:41:19;;;;;;;23.33;11.60;;;;;;;-143.84;77.51;45148.09;5070553;28;20496;-74
2023/03/01 10:43:48;;;;;;;15.87;11.03;;;;;;;-143.84;77.32;45178.56;5070204;28;20445;-74
2023/03/01 10:46:31;;;;;;;24.57;13.37;;;;;;;-143.84;78.23;45170.94;5068949;28;20958;-76
2023/03/01 10:49:20;;;;;;;18.03;12.10;;;;;;;-143.84;78.40;45157.59;5070138;28;20484;-77
2023/03/01 10:51:48;;;;;;;17.60;12.70;;;;;;;-143.84;78.46;45167.13;5070831;28;20433;-78
2023/03/01 10:54:21;;;;;;;16.37;12.37;;;;;;;-143.84;78.62;45172.84;5070996;28;20859;-77
2023/03/01 10:56:52;;;;;;;24.10;13.90;;;;;;;-143.84;78.68;45129.03;5067181;28;20437;-77
2023/03/01 10:59:29;;;;;;;16.20;12.57;;;;;;;-143.84;78.27;45163.31;5070781;28;20437;-78
2023/03/01 11:02:15;;;;;;;16.80;12.50;;;;;;;-143.84;79.12;45155.69;5068908;28;20447;-77
2023/03/01 11:04:59;;;;;;;23.63;14.57;;;;;;;-143.84;78.65;45199.50;5070135;28;20440;-78
2023/03/01 11:07:26;;;;;;;18.00;12.27;;;;;;;-143.84;78.88;45134.75;5069901;28;20445;-74
2023/03/01 11:09:53;;;;;;;25.07;15.27;;;;;;;-143.84;79.32;45136.66;5069167;28;20438;-74
2023/03/01 11:12:22;;;;;;;15.43;12.30;;;;;;;-143.84;79.30;45155.69;5068874;28;20448;-74
2023/03/01 11:14:51;;;;;;;20.10;13.60;;;;;;;-143.84;79.62;45151.91;5069077;28;21280;-74
2023/03/01 11:17:25;;;;;;;23.00;13.70;;;;;;;-143.84;79.42;45146.19;5068990;28;20462;-74
2023/03/01 11:20:03;;;;;;;17.17;12.67;;;;;;;-143.84;79.37;45136.66;5068857;28;20481;-74